This is the latest recevied weather packets stored in our database for station/object AA4XD. If no packets are shown the sender has not sent any weather packets the latest 10 day(s).
| Time | Temp. | Humidity | Pressure | Rain* | Wind** | Luminosity | Snow |
|---|---|---|---|---|---|---|---|
| 1777998092 | 28.89° C | 50% | 1015.7 hPa | 0 mm | - | 218 W/m² | - |
| 1777997789 | 28.33° C | 48% | 1015.6 hPa | 0 mm | - | 855 W/m² | - |
| 1777997486 | 27.78° C | 50% | 1015.7 hPa | 0 mm | - | 1057 W/m² | - |
| 1777997184 | 27.78° C | 52% | 1015.7 hPa | 0 mm | - | 1037 W/m² | - |
| 1777996881 | 27.22° C | 54% | 1015.7 hPa | 0 mm | - | 1016 W/m² | - |
| 1777996577 | 27.22° C | 54% | 1015.9 hPa | 0 mm | - | 191 W/m² | - |
| 1777996274 | 27.78° C | 53% | 1015.8 hPa | 0 mm | - | 209 W/m² | - |
| 1777995970 | 28.33° C | 53% | 1015.7 hPa | 0 mm | - | 235 W/m² | - |
| 1777995666 | 28.89° C | 50% | 1016 hPa | 0 mm | - | 195 W/m² | - |
| 1777995363 | 27.78° C | 54% | 1015.8 hPa | 0 mm | - | 970 W/m² | - |
| 1777995061 | 27.22° C | 54% | 1015.8 hPa | 0 mm | - | 253 W/m² | - |
| 1777994757 | 28.33° C | 52% | 1016 hPa | 0 mm | - | 219 W/m² | - |
| 1777994453 | 29.44° C | 49% | 1015.8 hPa | 0 mm | - | 886 W/m² | - |
| 1777994148 | 27.78° C | 54% | 1015.7 hPa | 0 mm | - | 909 W/m² | - |
| 1777993846 | 27.78° C | 53% | 1015.9 hPa | 0 mm | - | 930 W/m² | - |
| 1777993542 | 28.89° C | 52% | 1015.6 hPa | 0 mm | - | 550 W/m² | - |
| 1777993238 | 28.33° C | 54% | 1015.6 hPa | 0 mm | - | 878 W/m² | - |
| 1777992934 | 27.78° C | 53% | 1015.8 hPa | 0 mm | - | 805 W/m² | - |
| 1777992633 | 27.22° C | 58% | 1015.9 hPa | 0 mm | - | 814 W/m² | - |
| 1777992331 | 27.22° C | 56% | 1015.8 hPa | 0 mm | - | 683 W/m² | - |
| 1777992027 | 27.22° C | 57% | 1015.7 hPa | 0 mm | - | 752 W/m² | - |
| 1777991725 | 27.22° C | 57% | 1015.7 hPa | 0 mm | - | 605 W/m² | - |
| 1777991422 | 26.67° C | 59% | 1015.6 hPa | 0 mm | - | 669 W/m² | - |
| 1777991119 | 27.22° C | 57% | 1015.7 hPa | 0 mm | - | 642 W/m² | - |
| 1777990817 | 27.22° C | 58% | 1015.8 hPa | 0 mm | - | 633 W/m² | - |
* Rain latest hour (hover to see other rain measurements)
** Current wind speed in m/s (hover to see current wind gust speed)